Terminal Aerodrome Forecast
Issued by NWS

Home | Current Version | Previous Version | Text Only | Print | Product List | Glossary Off
Versions: 1 2 3 4 5 6 7 8 9 10 11 12 13 14 15 16 17

000
FTUS43 KGRB 260520
TAFCWA
TAF
KCWA 260520Z 2606/2706 32006KT P6SM BKN025 OVC035
      TEMPO 2606/2609 SCT025
     FM260900 31004KT P6SM SCT030
      TEMPO 2609/2613 1SM BR SCT003
     FM261400 32007KT P6SM SCT028
      TEMPO 2614/2617 BKN028
     FM262000 33006KT P6SM SCT040
     FM270100 VRB03KT P6SM SKC
      AMD LTD TO CLD VIS AND WIND TIL 261100=

USA.gov is the U.S. government's official web portal to all federal, state and local government web resources and services.